sensor_id;sensor_type;location;lat;lon;timestamp;temperature;humidity
22908;DHT22;11620;50.050;8.690;2023-04-06T00:02:26;3.10;99.90
22908;DHT22;11620;50.050;8.690;2023-04-06T00:05:12;3.00;99.90
22908;DHT22;11620;50.050;8.690;2023-04-06T00:07:59;3.00;99.90
22908;DHT22;11620;50.050;8.690;2023-04-06T00:10:45;3.00;99.90
22908;DHT22;11620;50.050;8.690;2023-04-06T00:13:31;3.00;99.90
22908;DHT22;11620;50.050;8.690;2023-04-06T00:16:18;2.90;99.90
22908;DHT22;11620;50.050;8.690;2023-04-06T00:19:04;2.80;99.90
22908;DHT22;11620;50.050;8.690;2023-04-06T00:21:51;2.70;99.90
22908;DHT22;11620;50.050;8.690;2023-04-06T00:24:37;2.70;99.90
22908;DHT22;11620;50.050;8.690;2023-04-06T00:27:24;2.70;99.90
22908;DHT22;11620;50.050;8.690;2023-04-06T00:30:10;2.70;99.90
22908;DHT22;11620;50.050;8.690;2023-04-06T00:32:57;2.70;99.90
22908;DHT22;11620;50.050;8.690;2023-04-06T00:35:43;2.70;99.90
22908;DHT22;11620;50.050;8.690;2023-04-06T00:38:29;2.60;99.90
22908;DHT22;11620;50.050;8.690;2023-04-06T00:41:17;2.60;99.90
22908;DHT22;11620;50.050;8.690;2023-04-06T00:44:03;2.60;99.90
22908;DHT22;11620;50.050;8.690;2023-04-06T00:46:49;2.60;99.90
22908;DHT22;11620;50.050;8.690;2023-04-06T00:49:36;2.50;99.90
22908;DHT22;11620;50.050;8.690;2023-04-06T00:52:22;2.40;99.90
22908;DHT22;11620;50.050;8.690;2023-04-06T00:55:09;2.40;99.90
22908;DHT22;11620;50.050;8.690;2023-04-06T00:57:59;2.40;99.90
22908;DHT22;11620;50.050;8.690;2023-04-06T01:00:47;2.30;99.90
22908;DHT22;11620;50.050;8.690;2023-04-06T01:03:33;2.30;99.90
22908;DHT22;11620;50.050;8.690;2023-04-06T01:06:19;2.30;99.90
22908;DHT22;11620;50.050;8.690;2023-04-06T01:09:06;2.30;99.90
22908;DHT22;11620;50.050;8.690;2023-04-06T01:11:52;2.30;99.90
22908;DHT22;11620;50.050;8.690;2023-04-06T01:14:39;2.20;99.90
22908;DHT22;11620;50.050;8.690;2023-04-06T01:17:25;2.10;99.90
22908;DHT22;11620;50.050;8.690;2023-04-06T01:20:11;2.10;99.90
22908;DHT22;11620;50.050;8.690;2023-04-06T01:22:58;2.00;99.90
22908;DHT22;11620;50.050;8.690;2023-04-06T01:25:44;2.00;99.90
22908;DHT22;11620;50.050;8.690;2023-04-06T01:28:30;1.90;99.90
22908;DHT22;11620;50.050;8.690;2023-04-06T01:31:17;1.90;99.90
22908;DHT22;11620;50.050;8.690;2023-04-06T01:34:03;1.80;99.90
22908;DHT22;11620;50.050;8.690;2023-04-06T01:36:50;1.70;99.90
22908;DHT22;11620;50.050;8.690;2023-04-06T01:39:36;1.80;99.90
22908;DHT22;11620;50.050;8.690;2023-04-06T01:42:22;1.80;99.90
22908;DHT22;11620;50.050;8.690;2023-04-06T01:45:09;1.80;99.90
22908;DHT22;11620;50.050;8.690;2023-04-06T01:47:56;1.70;99.90
22908;DHT22;11620;50.050;8.690;2023-04-06T01:50:42;1.70;99.90
22908;DHT22;11620;50.050;8.690;2023-04-06T01:53:28;1.70;99.90
22908;DHT22;11620;50.050;8.690;2023-04-06T01:56:15;1.70;99.90
22908;DHT22;11620;50.050;8.690;2023-04-06T01:59:01;1.70;99.90
22908;DHT22;11620;50.050;8.690;2023-04-06T02:01:48;1.70;99.90
22908;DHT22;11620;50.050;8.690;2023-04-06T02:04:34;1.70;99.90
22908;DHT22;11620;50.050;8.690;2023-04-06T02:07:20;1.60;99.90
22908;DHT22;11620;50.050;8.690;2023-04-06T02:10:12;1.60;99.90
22908;DHT22;11620;50.050;8.690;2023-04-06T02:12:59;1.60;99.90
22908;DHT22;11620;50.050;8.690;2023-04-06T02:15:45;1.50;99.90
22908;DHT22;11620;50.050;8.690;2023-04-06T02:18:32;1.40;99.90
22908;DHT22;11620;50.050;8.690;2023-04-06T02:21:18;1.50;99.90
22908;DHT22;11620;50.050;8.690;2023-04-06T02:24:06;1.50;99.90
22908;DHT22;11620;50.050;8.690;2023-04-06T02:26:52;1.50;99.90
22908;DHT22;11620;50.050;8.690;2023-04-06T02:29:39;1.40;99.90
22908;DHT22;11620;50.050;8.690;2023-04-06T02:32:25;1.30;99.90
22908;DHT22;11620;50.050;8.690;2023-04-06T02:35:12;1.30;99.90
22908;DHT22;11620;50.050;8.690;2023-04-06T02:37:58;1.30;99.90
22908;DHT22;11620;50.050;8.690;2023-04-06T02:40:44;1.30;99.90
22908;DHT22;11620;50.050;8.690;2023-04-06T02:43:32;1.20;99.90
22908;DHT22;11620;50.050;8.690;2023-04-06T02:46:18;1.20;99.90
22908;DHT22;11620;50.050;8.690;2023-04-06T02:49:05;1.20;99.90
22908;DHT22;11620;50.050;8.690;2023-04-06T02:51:51;1.10;99.90
22908;DHT22;11620;50.050;8.690;2023-04-06T02:54:38;1.10;99.90
22908;DHT22;11620;50.050;8.690;2023-04-06T02:57:24;1.10;99.90
22908;DHT22;11620;50.050;8.690;2023-04-06T03:00:11;1.10;99.90
22908;DHT22;11620;50.050;8.690;2023-04-06T03:02:58;1.10;99.90
22908;DHT22;11620;50.050;8.690;2023-04-06T03:05:45;1.00;99.90
22908;DHT22;11620;50.050;8.690;2023-04-06T03:08:31;1.00;99.90
22908;DHT22;11620;50.050;8.690;2023-04-06T03:11:17;0.90;99.90
22908;DHT22;11620;50.050;8.690;2023-04-06T03:14:03;0.90;99.90
22908;DHT22;11620;50.050;8.690;2023-04-06T03:16:50;0.90;99.90
22908;DHT22;11620;50.050;8.690;2023-04-06T03:19:36;0.90;99.90
22908;DHT22;11620;50.050;8.690;2023-04-06T03:22:23;0.90;99.90
22908;DHT22;11620;50.050;8.690;2023-04-06T03:25:09;0.80;99.90
22908;DHT22;11620;50.050;8.690;2023-04-06T03:27:56;0.80;99.90
22908;DHT22;11620;50.050;8.690;2023-04-06T03:30:42;0.80;99.90
22908;DHT22;11620;50.050;8.690;2023-04-06T03:33:28;0.70;99.90
22908;DHT22;11620;50.050;8.690;2023-04-06T03:36:15;0.70;99.90
22908;DHT22;11620;50.050;8.690;2023-04-06T03:39:01;0.70;99.90
22908;DHT22;11620;50.050;8.690;2023-04-06T03:41:48;0.70;99.90
22908;DHT22;11620;50.050;8.690;2023-04-06T03:44:34;0.70;99.90
22908;DHT22;11620;50.050;8.690;2023-04-06T03:47:21;0.70;99.90
22908;DHT22;11620;50.050;8.690;2023-04-06T03:50:07;0.80;99.90
22908;DHT22;11620;50.050;8.690;2023-04-06T03:52:54;0.70;99.90
22908;DHT22;11620;50.050;8.690;2023-04-06T03:55:40;0.70;99.90
22908;DHT22;11620;50.050;8.690;2023-04-06T03:58:26;0.70;99.90
22908;DHT22;11620;50.050;8.690;2023-04-06T04:01:13;0.60;99.90
22908;DHT22;11620;50.050;8.690;2023-04-06T04:03:59;0.60;99.90
22908;DHT22;11620;50.050;8.690;2023-04-06T04:06:46;0.50;99.90
22908;DHT22;11620;50.050;8.690;2023-04-06T04:09:32;0.50;99.90
22908;DHT22;11620;50.050;8.690;2023-04-06T04:12:18;0.50;99.90
22908;DHT22;11620;50.050;8.690;2023-04-06T04:15:05;0.50;99.90
22908;DHT22;11620;50.050;8.690;2023-04-06T04:17:51;0.50;99.90
22908;DHT22;11620;50.050;8.690;2023-04-06T04:20:38;0.50;99.90
22908;DHT22;11620;50.050;8.690;2023-04-06T04:23:24;0.50;99.90
22908;DHT22;11620;50.050;8.690;2023-04-06T04:26:11;0.50;99.90
22908;DHT22;11620;50.050;8.690;2023-04-06T04:28:57;0.50;99.90
22908;DHT22;11620;50.050;8.690;2023-04-06T04:31:43;0.50;99.90
22908;DHT22;11620;50.050;8.690;2023-04-06T04:34:30;0.40;99.90
22908;DHT22;11620;50.050;8.690;2023-04-06T04:37:17;0.40;99.90
22908;DHT22;11620;50.050;8.690;2023-04-06T04:40:03;0.40;99.90
22908;DHT22;11620;50.050;8.690;2023-04-06T04:42:50;0.40;99.90
22908;DHT22;11620;50.050;8.690;2023-04-06T04:45:37;0.40;99.90
22908;DHT22;11620;50.050;8.690;2023-04-06T04:48:23;0.40;99.90
22908;DHT22;11620;50.050;8.690;2023-04-06T04:51:09;0.40;99.90
22908;DHT22;11620;50.050;8.690;2023-04-06T04:53:56;0.30;99.90
22908;DHT22;11620;50.050;8.690;2023-04-06T04:56:42;0.30;99.90
22908;DHT22;11620;50.050;8.690;2023-04-06T04:59:28;0.30;99.90
22908;DHT22;11620;50.050;8.690;2023-04-06T05:02:15;0.30;99.90
22908;DHT22;11620;50.050;8.690;2023-04-06T05:05:02;0.30;99.90
22908;DHT22;11620;50.050;8.690;2023-04-06T05:07:48;0.30;99.90
22908;DHT22;11620;50.050;8.690;2023-04-06T05:10:35;0.30;99.90
22908;DHT22;11620;50.050;8.690;2023-04-06T05:13:21;0.30;99.90
22908;DHT22;11620;50.050;8.690;2023-04-06T05:16:08;0.30;99.90
22908;DHT22;11620;50.050;8.690;2023-04-06T05:18:54;0.30;99.90
22908;DHT22;11620;50.050;8.690;2023-04-06T05:21:42;0.40;99.90
22908;DHT22;11620;50.050;8.690;2023-04-06T05:24:29;0.30;99.90
22908;DHT22;11620;50.050;8.690;2023-04-06T05:27:15;0.40;99.90
22908;DHT22;11620;50.050;8.690;2023-04-06T05:30:03;0.40;99.90
22908;DHT22;11620;50.050;8.690;2023-04-06T05:32:50;0.40;99.90
22908;DHT22;11620;50.050;8.690;2023-04-06T05:35:36;0.40;99.90
22908;DHT22;11620;50.050;8.690;2023-04-06T05:38:22;0.40;99.90
22908;DHT22;11620;50.050;8.690;2023-04-06T05:41:09;0.50;99.90
22908;DHT22;11620;50.050;8.690;2023-04-06T05:43:55;0.50;99.90
22908;DHT22;11620;50.050;8.690;2023-04-06T05:46:41;0.50;99.90
22908;DHT22;11620;50.050;8.690;2023-04-06T05:49:28;0.60;99.90
22908;DHT22;11620;50.050;8.690;2023-04-06T05:52:14;0.70;99.90
22908;DHT22;11620;50.050;8.690;2023-04-06T05:55:00;0.80;99.90
22908;DHT22;11620;50.050;8.690;2023-04-06T05:57:47;0.90;99.90
22908;DHT22;11620;50.050;8.690;2023-04-06T06:00:33;1.00;99.90
22908;DHT22;11620;50.050;8.690;2023-04-06T06:03:20;1.10;99.90
22908;DHT22;11620;50.050;8.690;2023-04-06T06:06:08;1.30;99.90
22908;DHT22;11620;50.050;8.690;2023-04-06T06:08:55;1.50;99.90
22908;DHT22;11620;50.050;8.690;2023-04-06T06:11:42;1.60;99.90
22908;DHT22;11620;50.050;8.690;2023-04-06T06:14:28;1.70;99.90
22908;DHT22;11620;50.050;8.690;2023-04-06T06:17:14;2.00;99.90
22908;DHT22;11620;50.050;8.690;2023-04-06T06:20:01;2.10;99.90
22908;DHT22;11620;50.050;8.690;2023-04-06T06:22:47;2.30;99.90
22908;DHT22;11620;50.050;8.690;2023-04-06T06:25:34;2.40;99.90
22908;DHT22;11620;50.050;8.690;2023-04-06T06:28:20;2.60;99.90
22908;DHT22;11620;50.050;8.690;2023-04-06T06:31:07;2.80;99.90
22908;DHT22;11620;50.050;8.690;2023-04-06T06:33:53;3.00;99.90
22908;DHT22;11620;50.050;8.690;2023-04-06T06:36:39;3.10;99.90
22908;DHT22;11620;50.050;8.690;2023-04-06T06:39:26;3.30;99.90
22908;DHT22;11620;50.050;8.690;2023-04-06T06:42:12;3.40;99.90
22908;DHT22;11620;50.050;8.690;2023-04-06T06:44:59;3.60;99.90
22908;DHT22;11620;50.050;8.690;2023-04-06T06:47:45;3.70;99.90
22908;DHT22;11620;50.050;8.690;2023-04-06T06:50:32;3.90;99.90
22908;DHT22;11620;50.050;8.690;2023-04-06T06:53:18;3.90;99.90
22908;DHT22;11620;50.050;8.690;2023-04-06T06:56:05;4.20;99.90
22908;DHT22;11620;50.050;8.690;2023-04-06T06:58:52;4.30;99.90
22908;DHT22;11620;50.050;8.690;2023-04-06T07:01:38;4.50;99.90
22908;DHT22;11620;50.050;8.690;2023-04-06T07:04:24;4.60;99.90
22908;DHT22;11620;50.050;8.690;2023-04-06T07:07:11;4.80;99.90
22908;DHT22;11620;50.050;8.690;2023-04-06T07:09:57;5.00;99.90
22908;DHT22;11620;50.050;8.690;2023-04-06T07:12:43;5.30;99.90
22908;DHT22;11620;50.050;8.690;2023-04-06T07:15:30;5.40;99.90
22908;DHT22;11620;50.050;8.690;2023-04-06T07:18:16;5.60;99.90
22908;DHT22;11620;50.050;8.690;2023-04-06T07:21:03;5.60;99.90
22908;DHT22;11620;50.050;8.690;2023-04-06T07:23:50;5.70;99.90
22908;DHT22;11620;50.050;8.690;2023-04-06T07:26:36;5.90;99.90
22908;DHT22;11620;50.050;8.690;2023-04-06T07:29:23;6.30;99.90
22908;DHT22;11620;50.050;8.690;2023-04-06T07:32:10;6.50;99.90
22908;DHT22;11620;50.050;8.690;2023-04-06T07:34:56;6.30;99.90
22908;DHT22;11620;50.050;8.690;2023-04-06T07:37:44;6.40;99.90
22908;DHT22;11620;50.050;8.690;2023-04-06T07:40:30;6.60;99.90
22908;DHT22;11620;50.050;8.690;2023-04-06T07:43:18;6.80;99.90
22908;DHT22;11620;50.050;8.690;2023-04-06T07:46:05;6.90;99.90
22908;DHT22;11620;50.050;8.690;2023-04-06T07:48:51;6.70;99.90
22908;DHT22;11620;50.050;8.690;2023-04-06T07:51:38;6.80;99.90
22908;DHT22;11620;50.050;8.690;2023-04-06T07:54:25;7.10;99.90
22908;DHT22;11620;50.050;8.690;2023-04-06T07:57:12;7.50;99.90
22908;DHT22;11620;50.050;8.690;2023-04-06T07:59:58;7.70;99.90
22908;DHT22;11620;50.050;8.690;2023-04-06T08:02:44;8.00;99.90
22908;DHT22;11620;50.050;8.690;2023-04-06T08:05:31;8.10;99.90
22908;DHT22;11620;50.050;8.690;2023-04-06T08:08:17;8.30;99.90
22908;DHT22;11620;50.050;8.690;2023-04-06T08:11:03;8.40;99.90
22908;DHT22;11620;50.050;8.690;2023-04-06T08:13:50;8.50;99.90
22908;DHT22;11620;50.050;8.690;2023-04-06T08:16:36;8.40;99.90
22908;DHT22;11620;50.050;8.690;2023-04-06T08:19:23;7.90;99.90
22908;DHT22;11620;50.050;8.690;2023-04-06T08:22:10;8.50;99.90
22908;DHT22;11620;50.050;8.690;2023-04-06T08:24:56;8.40;99.90
22908;DHT22;11620;50.050;8.690;2023-04-06T08:27:42;8.30;99.90
22908;DHT22;11620;50.050;8.690;2023-04-06T08:30:29;8.60;99.90
22908;DHT22;11620;50.050;8.690;2023-04-06T08:33:15;8.60;99.90
22908;DHT22;11620;50.050;8.690;2023-04-06T08:36:12;8.70;99.90
22908;DHT22;11620;50.050;8.690;2023-04-06T08:38:39;9.10;99.90
22908;DHT22;11620;50.050;8.690;2023-04-06T08:41:13;8.80;99.90
22908;DHT22;11620;50.050;8.690;2023-04-06T08:43:52;8.40;99.90
22908;DHT22;11620;50.050;8.690;2023-04-06T08:46:21;8.40;99.90
22908;DHT22;11620;50.050;8.690;2023-04-06T08:48:47;8.60;99.90
22908;DHT22;11620;50.050;8.690;2023-04-06T08:51:17;9.20;99.90
22908;DHT22;11620;50.050;8.690;2023-04-06T08:53:44;9.10;99.90
22908;DHT22;11620;50.050;8.690;2023-04-06T08:56:29;9.10;99.90
22908;DHT22;11620;50.050;8.690;2023-04-06T08:59:15;9.20;99.90
22908;DHT22;11620;50.050;8.690;2023-04-06T09:02:04;9.70;99.90
22908;DHT22;11620;50.050;8.690;2023-04-06T09:04:54;9.80;99.90
22908;DHT22;11620;50.050;8.690;2023-04-06T09:07:41;9.90;99.90
22908;DHT22;11620;50.050;8.690;2023-04-06T09:10:27;10.00;99.90
22908;DHT22;11620;50.050;8.690;2023-04-06T09:13:14;10.60;99.90
22908;DHT22;11620;50.050;8.690;2023-04-06T09:16:05;10.60;99.90
22908;DHT22;11620;50.050;8.690;2023-04-06T09:18:52;10.30;99.90
22908;DHT22;11620;50.050;8.690;2023-04-06T09:21:18;10.50;99.90
22908;DHT22;11620;50.050;8.690;2023-04-06T09:23:45;10.40;99.90
22908;DHT22;11620;50.050;8.690;2023-04-06T09:26:12;10.70;99.90
22908;DHT22;11620;50.050;8.690;2023-04-06T09:28:54;10.70;99.90
22908;DHT22;11620;50.050;8.690;2023-04-06T09:31:26;11.10;99.90
22908;DHT22;11620;50.050;8.690;2023-04-06T09:33:53;11.00;99.90
22908;DHT22;11620;50.050;8.690;2023-04-06T09:36:28;11.60;99.90
22908;DHT22;11620;50.050;8.690;2023-04-06T09:39:15;12.20;99.90
22908;DHT22;11620;50.050;8.690;2023-04-06T09:42:01;12.10;99.90
22908;DHT22;11620;50.050;8.690;2023-04-06T09:44:48;12.00;99.70
22908;DHT22;11620;50.050;8.690;2023-04-06T09:47:36;12.20;99.90
22908;DHT22;11620;50.050;8.690;2023-04-06T09:50:24;11.70;99.20
22908;DHT22;11620;50.050;8.690;2023-04-06T09:53:11;11.60;99.50
22908;DHT22;11620;50.050;8.690;2023-04-06T09:56:02;11.70;99.90
22908;DHT22;11620;50.050;8.690;2023-04-06T09:58:50;11.80;99.90
22908;DHT22;11620;50.050;8.690;2023-04-06T10:01:39;11.70;99.90
22908;DHT22;11620;50.050;8.690;2023-04-06T10:04:50;11.30;99.20
22908;DHT22;11620;50.050;8.690;2023-04-06T10:07:40;11.60;99.90
22908;DHT22;11620;50.050;8.690;2023-04-06T10:10:28;12.10;99.90
22908;DHT22;11620;50.050;8.690;2023-04-06T10:13:15;12.80;99.90
22908;DHT22;11620;50.050;8.690;2023-04-06T10:16:02;13.20;99.90
22908;DHT22;11620;50.050;8.690;2023-04-06T10:18:56;12.50;97.70
22908;DHT22;11620;50.050;8.690;2023-04-06T10:21:45;11.90;98.10
22908;DHT22;11620;50.050;8.690;2023-04-06T10:24:35;12.30;98.00
22908;DHT22;11620;50.050;8.690;2023-04-06T10:27:28;12.40;99.90
22908;DHT22;11620;50.050;8.690;2023-04-06T10:30:15;12.80;97.40
22908;DHT22;11620;50.050;8.690;2023-04-06T10:33:18;12.70;98.50
22908;DHT22;11620;50.050;8.690;2023-04-06T10:36:15;12.40;96.90
22908;DHT22;11620;50.050;8.690;2023-04-06T10:39:07;12.90;97.90
22908;DHT22;11620;50.050;8.690;2023-04-06T10:41:53;13.60;98.20
22908;DHT22;11620;50.050;8.690;2023-04-06T10:44:43;13.10;95.60
22908;DHT22;11620;50.050;8.690;2023-04-06T10:47:39;13.50;97.30
22908;DHT22;11620;50.050;8.690;2023-04-06T10:50:25;13.90;96.80
22908;DHT22;11620;50.050;8.690;2023-04-06T10:53:20;13.70;95.90
22908;DHT22;11620;50.050;8.690;2023-04-06T10:56:10;13.50;95.90
22908;DHT22;11620;50.050;8.690;2023-04-06T10:58:59;13.60;96.60
22908;DHT22;11620;50.050;8.690;2023-04-06T11:01:46;13.70;97.10
22908;DHT22;11620;50.050;8.690;2023-04-06T11:04:32;13.90;96.40
22908;DHT22;11620;50.050;8.690;2023-04-06T11:07:23;13.70;94.50
22908;DHT22;11620;50.050;8.690;2023-04-06T11:10:10;14.10;95.20
22908;DHT22;11620;50.050;8.690;2023-04-06T11:12:57;14.00;95.30
22908;DHT22;11620;50.050;8.690;2023-04-06T11:15:43;14.20;94.60
22908;DHT22;11620;50.050;8.690;2023-04-06T11:18:29;14.60;94.50
22908;DHT22;11620;50.050;8.690;2023-04-06T11:21:18;13.80;93.40
22908;DHT22;11620;50.050;8.690;2023-04-06T11:24:12;13.60;93.90
22908;DHT22;11620;50.050;8.690;2023-04-06T11:26:58;14.10;93.90
22908;DHT22;11620;50.050;8.690;2023-04-06T11:29:47;13.90;93.30
22908;DHT22;11620;50.050;8.690;2023-04-06T11:32:43;14.20;93.10
22908;DHT22;11620;50.050;8.690;2023-04-06T11:35:31;13.50;93.10
22908;DHT22;11620;50.050;8.690;2023-04-06T11:38:19;13.20;92.50
22908;DHT22;11620;50.050;8.690;2023-04-06T11:41:06;12.90;92.30
22908;DHT22;11620;50.050;8.690;2023-04-06T11:43:55;12.50;92.30
22908;DHT22;11620;50.050;8.690;2023-04-06T11:46:52;12.80;92.90
22908;DHT22;11620;50.050;8.690;2023-04-06T11:49:43;13.00;92.70
22908;DHT22;11620;50.050;8.690;2023-04-06T11:52:30;13.00;91.60
22908;DHT22;11620;50.050;8.690;2023-04-06T11:55:18;13.50;92.90
22908;DHT22;11620;50.050;8.690;2023-04-06T11:58:05;13.70;94.60
22908;DHT22;11620;50.050;8.690;2023-04-06T12:00:52;13.20;91.90
22908;DHT22;11620;50.050;8.690;2023-04-06T12:03:38;13.30;92.90
22908;DHT22;11620;50.050;8.690;2023-04-06T12:06:25;13.40;92.90
22908;DHT22;11620;50.050;8.690;2023-04-06T12:09:12;13.60;93.50
22908;DHT22;11620;50.050;8.690;2023-04-06T12:11:58;14.20;93.30
22908;DHT22;11620;50.050;8.690;2023-04-06T12:14:44;14.10;90.50
22908;DHT22;11620;50.050;8.690;2023-04-06T12:17:31;13.30;90.00
22908;DHT22;11620;50.050;8.690;2023-04-06T12:20:17;13.00;89.80
22908;DHT22;11620;50.050;8.690;2023-04-06T12:23:04;13.50;91.50
22908;DHT22;11620;50.050;8.690;2023-04-06T12:25:50;13.40;90.80
22908;DHT22;11620;50.050;8.690;2023-04-06T12:28:36;13.30;90.70
22908;DHT22;11620;50.050;8.690;2023-04-06T12:31:23;14.00;91.80
22908;DHT22;11620;50.050;8.690;2023-04-06T12:34:11;15.00;93.00
22908;DHT22;11620;50.050;8.690;2023-04-06T12:36:57;15.30;90.50
22908;DHT22;11620;50.050;8.690;2023-04-06T12:39:44;15.00;88.90
22908;DHT22;11620;50.050;8.690;2023-04-06T12:42:30;14.60;91.00
22908;DHT22;11620;50.050;8.690;2023-04-06T12:45:17;14.00;90.20
22908;DHT22;11620;50.050;8.690;2023-04-06T12:48:03;13.60;90.20
22908;DHT22;11620;50.050;8.690;2023-04-06T12:51:00;13.40;90.30
22908;DHT22;11620;50.050;8.690;2023-04-06T12:53:48;13.80;90.80
22908;DHT22;11620;50.050;8.690;2023-04-06T12:56:34;13.80;90.50
22908;DHT22;11620;50.050;8.690;2023-04-06T12:59:21;13.70;89.70
22908;DHT22;11620;50.050;8.690;2023-04-06T13:02:07;13.40;90.30
22908;DHT22;11620;50.050;8.690;2023-04-06T13:04:53;13.70;91.20
22908;DHT22;11620;50.050;8.690;2023-04-06T13:07:40;13.70;90.60
22908;DHT22;11620;50.050;8.690;2023-04-06T13:10:26;14.20;91.00
22908;DHT22;11620;50.050;8.690;2023-04-06T13:13:13;14.50;90.90
22908;DHT22;11620;50.050;8.690;2023-04-06T13:16:02;14.70;90.80
22908;DHT22;11620;50.050;8.690;2023-04-06T13:18:49;14.30;90.30
22908;DHT22;11620;50.050;8.690;2023-04-06T13:21:36;14.60;91.70
22908;DHT22;11620;50.050;8.690;2023-04-06T13:24:22;14.30;90.20
22908;DHT22;11620;50.050;8.690;2023-04-06T13:27:09;14.50;90.10
22908;DHT22;11620;50.050;8.690;2023-04-06T13:29:55;14.80;92.40
22908;DHT22;11620;50.050;8.690;2023-04-06T13:32:42;15.10;90.70
22908;DHT22;11620;50.050;8.690;2023-04-06T13:35:28;15.00;91.20
22908;DHT22;11620;50.050;8.690;2023-04-06T13:38:15;14.90;91.00
22908;DHT22;11620;50.050;8.690;2023-04-06T13:41:02;14.10;88.90
22908;DHT22;11620;50.050;8.690;2023-04-06T13:43:48;14.00;90.30
22908;DHT22;11620;50.050;8.690;2023-04-06T13:46:34;14.00;89.60
22908;DHT22;11620;50.050;8.690;2023-04-06T13:49:21;14.10;90.00
22908;DHT22;11620;50.050;8.690;2023-04-06T13:52:07;14.10;90.00
22908;DHT22;11620;50.050;8.690;2023-04-06T13:54:56;14.30;90.10
22908;DHT22;11620;50.050;8.690;2023-04-06T13:57:42;14.40;89.80
22908;DHT22;11620;50.050;8.690;2023-04-06T14:00:28;13.60;89.00
22908;DHT22;11620;50.050;8.690;2023-04-06T14:03:15;13.60;89.40
22908;DHT22;11620;50.050;8.690;2023-04-06T14:06:09;13.00;89.50
22908;DHT22;11620;50.050;8.690;2023-04-06T14:08:55;13.30;89.80
22908;DHT22;11620;50.050;8.690;2023-04-06T14:11:42;13.10;89.70
22908;DHT22;11620;50.050;8.690;2023-04-06T14:14:29;13.10;90.00
22908;DHT22;11620;50.050;8.690;2023-04-06T14:17:15;13.10;90.30
22908;DHT22;11620;50.050;8.690;2023-04-06T14:20:02;13.20;90.20
22908;DHT22;11620;50.050;8.690;2023-04-06T14:22:48;13.10;90.30
22908;DHT22;11620;50.050;8.690;2023-04-06T14:25:35;13.00;90.40
22908;DHT22;11620;50.050;8.690;2023-04-06T14:28:22;13.20;90.10
22908;DHT22;11620;50.050;8.690;2023-04-06T14:31:15;13.20;91.00
22908;DHT22;11620;50.050;8.690;2023-04-06T14:34:02;13.00;90.00
22908;DHT22;11620;50.050;8.690;2023-04-06T14:36:49;13.10;90.40
22908;DHT22;11620;50.050;8.690;2023-04-06T14:39:35;13.10;90.20
22908;DHT22;11620;50.050;8.690;2023-04-06T14:42:22;12.90;90.50
22908;DHT22;11620;50.050;8.690;2023-04-06T14:45:08;13.00;91.20
22908;DHT22;11620;50.050;8.690;2023-04-06T14:47:55;13.00;90.90
22908;DHT22;11620;50.050;8.690;2023-04-06T14:50:41;13.10;90.40
22908;DHT22;11620;50.050;8.690;2023-04-06T14:53:32;13.00;90.10
22908;DHT22;11620;50.050;8.690;2023-04-06T14:56:22;12.90;90.40
22908;DHT22;11620;50.050;8.690;2023-04-06T14:59:09;13.00;90.60
22908;DHT22;11620;50.050;8.690;2023-04-06T15:01:56;12.50;90.60
22908;DHT22;11620;50.050;8.690;2023-04-06T15:04:42;12.20;90.30
22908;DHT22;11620;50.050;8.690;2023-04-06T15:07:28;12.10;90.80
22908;DHT22;11620;50.050;8.690;2023-04-06T15:10:15;12.20;90.40
22908;DHT22;11620;50.050;8.690;2023-04-06T15:13:02;12.40;90.10
22908;DHT22;11620;50.050;8.690;2023-04-06T15:15:50;12.20;89.80
22908;DHT22;11620;50.050;8.690;2023-04-06T15:18:37;12.00;90.10
22908;DHT22;11620;50.050;8.690;2023-04-06T15:21:26;11.90;90.10
22908;DHT22;11620;50.050;8.690;2023-04-06T15:24:13;11.80;90.10
22908;DHT22;11620;50.050;8.690;2023-04-06T15:26:59;11.70;90.10
22908;DHT22;11620;50.050;8.690;2023-04-06T15:29:45;11.70;90.30
22908;DHT22;11620;50.050;8.690;2023-04-06T15:32:32;11.90;90.50
22908;DHT22;11620;50.050;8.690;2023-04-06T15:35:18;11.80;90.20
22908;DHT22;11620;50.050;8.690;2023-04-06T15:38:05;11.90;90.30
22908;DHT22;11620;50.050;8.690;2023-04-06T15:40:52;11.50;90.50
22908;DHT22;11620;50.050;8.690;2023-04-06T15:43:38;11.50;90.50
22908;DHT22;11620;50.050;8.690;2023-04-06T15:46:25;11.60;91.10
22908;DHT22;11620;50.050;8.690;2023-04-06T15:49:14;11.70;90.40
22908;DHT22;11620;50.050;8.690;2023-04-06T15:52:01;11.70;90.80
22908;DHT22;11620;50.050;8.690;2023-04-06T15:54:47;11.50;90.20
22908;DHT22;11620;50.050;8.690;2023-04-06T15:57:34;11.40;90.30
22908;DHT22;11620;50.050;8.690;2023-04-06T16:00:20;11.30;90.30
22908;DHT22;11620;50.050;8.690;2023-04-06T16:03:07;11.30;90.50
22908;DHT22;11620;50.050;8.690;2023-04-06T16:05:53;11.60;91.10
22908;DHT22;11620;50.050;8.690;2023-04-06T16:08:40;11.30;90.20
22908;DHT22;11620;50.050;8.690;2023-04-06T16:11:27;11.30;91.00
22908;DHT22;11620;50.050;8.690;2023-04-06T16:14:13;11.40;90.80
22908;DHT22;11620;50.050;8.690;2023-04-06T16:16:59;11.20;91.30
22908;DHT22;11620;50.050;8.690;2023-04-06T16:19:46;11.20;91.30
22908;DHT22;11620;50.050;8.690;2023-04-06T16:22:32;11.30;91.60
22908;DHT22;11620;50.050;8.690;2023-04-06T16:25:18;11.40;91.90
22908;DHT22;11620;50.050;8.690;2023-04-06T16:28:05;11.50;91.60
22908;DHT22;11620;50.050;8.690;2023-04-06T16:30:52;11.30;91.40
22908;DHT22;11620;50.050;8.690;2023-04-06T16:33:38;11.30;91.40
22908;DHT22;11620;50.050;8.690;2023-04-06T16:36:26;11.20;91.20
22908;DHT22;11620;50.050;8.690;2023-04-06T16:39:12;11.10;91.60
22908;DHT22;11620;50.050;8.690;2023-04-06T16:41:59;10.90;91.80
22908;DHT22;11620;50.050;8.690;2023-04-06T16:44:46;11.00;91.80
22908;DHT22;11620;50.050;8.690;2023-04-06T16:47:35;10.80;91.60
22908;DHT22;11620;50.050;8.690;2023-04-06T16:50:21;11.00;92.30
22908;DHT22;11620;50.050;8.690;2023-04-06T16:53:08;10.80;92.70
22908;DHT22;11620;50.050;8.690;2023-04-06T16:55:56;10.80;92.60
22908;DHT22;11620;50.050;8.690;2023-04-06T16:58:42;10.80;93.00
22908;DHT22;11620;50.050;8.690;2023-04-06T17:01:30;10.80;93.50
22908;DHT22;11620;50.050;8.690;2023-04-06T17:04:16;10.80;93.30
22908;DHT22;11620;50.050;8.690;2023-04-06T17:07:03;10.80;93.70
22908;DHT22;11620;50.050;8.690;2023-04-06T17:09:49;10.60;93.10
22908;DHT22;11620;50.050;8.690;2023-04-06T17:12:35;10.40;93.20
22908;DHT22;11620;50.050;8.690;2023-04-06T17:15:21;10.30;93.10
22908;DHT22;11620;50.050;8.690;2023-04-06T17:18:10;10.30;93.40
22908;DHT22;11620;50.050;8.690;2023-04-06T17:21:04;10.30;93.50
22908;DHT22;11620;50.050;8.690;2023-04-06T17:23:51;10.20;93.30
22908;DHT22;11620;50.050;8.690;2023-04-06T17:26:37;10.30;94.20
22908;DHT22;11620;50.050;8.690;2023-04-06T17:29:24;10.30;94.00
22908;DHT22;11620;50.050;8.690;2023-04-06T17:32:10;10.10;94.20
22908;DHT22;11620;50.050;8.690;2023-04-06T17:34:57;10.10;94.60
22908;DHT22;11620;50.050;8.690;2023-04-06T17:37:43;10.10;94.90
22908;DHT22;11620;50.050;8.690;2023-04-06T17:40:30;10.10;94.80